sensor_id;sensor_type;location;lat;lon;timestamp;temperature;humidity
74153;DHT22;62505;46.070;14.492;2022-12-18T00:01:59;20.50;75.20
74153;DHT22;62505;46.070;14.492;2022-12-18T00:04:27;20.50;74.20
74153;DHT22;62505;46.070;14.492;2022-12-18T00:06:54;20.50;74.40
74153;DHT22;62505;46.070;14.492;2022-12-18T00:09:21;20.40;74.30
74153;DHT22;62505;46.070;14.492;2022-12-18T00:11:48;20.40;74.20
74153;DHT22;62505;46.070;14.492;2022-12-18T00:14:16;20.50;74.30
74153;DHT22;62505;46.070;14.492;2022-12-18T00:16:44;20.50;74.40
74153;DHT22;62505;46.070;14.492;2022-12-18T00:19:11;20.40;74.20
74153;DHT22;62505;46.070;14.492;2022-12-18T00:21:41;20.40;74.30
74153;DHT22;62505;46.070;14.492;2022-12-18T00:24:08;20.40;74.20
74153;DHT22;62505;46.070;14.492;2022-12-18T00:26:36;20.40;74.30
74153;DHT22;62505;46.070;14.492;2022-12-18T00:29:05;20.40;74.30
74153;DHT22;62505;46.070;14.492;2022-12-18T00:31:34;20.40;74.30
74153;DHT22;62505;46.070;14.492;2022-12-18T00:34:01;20.50;74.30
74153;DHT22;62505;46.070;14.492;2022-12-18T00:36:31;20.40;74.30
74153;DHT22;62505;46.070;14.492;2022-12-18T00:38:59;20.40;74.20
74153;DHT22;62505;46.070;14.492;2022-12-18T00:41:27;20.40;74.20
74153;DHT22;62505;46.070;14.492;2022-12-18T00:44:14;20.40;74.20
74153;DHT22;62505;46.070;14.492;2022-12-18T00:46:43;20.40;74.30
74153;DHT22;62505;46.070;14.492;2022-12-18T00:49:12;20.40;74.30
74153;DHT22;62505;46.070;14.492;2022-12-18T00:51:39;20.40;74.30
74153;DHT22;62505;46.070;14.492;2022-12-18T00:54:06;20.40;74.20
74153;DHT22;62505;46.070;14.492;2022-12-18T00:56:35;20.40;74.10
74153;DHT22;62505;46.070;14.492;2022-12-18T00:59:02;20.40;74.20
74153;DHT22;62505;46.070;14.492;2022-12-18T01:01:29;20.50;74.20
74153;DHT22;62505;46.070;14.492;2022-12-18T01:03:59;20.40;74.10
74153;DHT22;62505;46.070;14.492;2022-12-18T01:06:26;20.40;74.20
74153;DHT22;62505;46.070;14.492;2022-12-18T01:08:54;20.40;74.20
74153;DHT22;62505;46.070;14.492;2022-12-18T01:11:21;20.40;74.10
74153;DHT22;62505;46.070;14.492;2022-12-18T01:13:48;20.40;74.20
74153;DHT22;62505;46.070;14.492;2022-12-18T01:16:17;20.40;74.20
74153;DHT22;62505;46.070;14.492;2022-12-18T01:18:44;20.40;74.20
74153;DHT22;62505;46.070;14.492;2022-12-18T01:21:14;20.40;74.20
74153;DHT22;62505;46.070;14.492;2022-12-18T01:23:41;20.40;74.20
74153;DHT22;62505;46.070;14.492;2022-12-18T01:26:09;20.40;74.20
74153;DHT22;62505;46.070;14.492;2022-12-18T01:28:37;20.40;74.20
74153;DHT22;62505;46.070;14.492;2022-12-18T01:31:15;20.40;74.20
74153;DHT22;62505;46.070;14.492;2022-12-18T01:33:42;20.40;74.10
74153;DHT22;62505;46.070;14.492;2022-12-18T01:36:16;20.40;74.30
74153;DHT22;62505;46.070;14.492;2022-12-18T01:38:44;20.40;74.10
74153;DHT22;62505;46.070;14.492;2022-12-18T01:41:11;20.40;74.10
74153;DHT22;62505;46.070;14.492;2022-12-18T01:43:42;20.40;74.10
74153;DHT22;62505;46.070;14.492;2022-12-18T01:46:09;20.40;74.20
74153;DHT22;62505;46.070;14.492;2022-12-18T01:48:37;20.40;74.10
74153;DHT22;62505;46.070;14.492;2022-12-18T01:51:06;20.40;74.00
74153;DHT22;62505;46.070;14.492;2022-12-18T01:53:36;20.40;74.10
74153;DHT22;62505;46.070;14.492;2022-12-18T01:56:03;20.40;74.10
74153;DHT22;62505;46.070;14.492;2022-12-18T01:58:37;20.40;74.10
74153;DHT22;62505;46.070;14.492;2022-12-18T02:01:06;20.40;74.10
74153;DHT22;62505;46.070;14.492;2022-12-18T02:03:33;20.40;74.10
74153;DHT22;62505;46.070;14.492;2022-12-18T02:06:06;20.40;74.10
74153;DHT22;62505;46.070;14.492;2022-12-18T02:08:43;20.40;74.10
74153;DHT22;62505;46.070;14.492;2022-12-18T02:11:18;20.40;74.10
74153;DHT22;62505;46.070;14.492;2022-12-18T02:13:55;20.40;74.10
74153;DHT22;62505;46.070;14.492;2022-12-18T02:16:27;20.40;74.00
74153;DHT22;62505;46.070;14.492;2022-12-18T02:18:59;20.40;74.10
74153;DHT22;62505;46.070;14.492;2022-12-18T02:21:33;20.40;74.00
74153;DHT22;62505;46.070;14.492;2022-12-18T02:24:16;20.40;74.00
74153;DHT22;62505;46.070;14.492;2022-12-18T02:26:48;20.40;74.10
74153;DHT22;62505;46.070;14.492;2022-12-18T02:29:18;20.40;74.10
74153;DHT22;62505;46.070;14.492;2022-12-18T02:31:51;20.40;74.00
74153;DHT22;62505;46.070;14.492;2022-12-18T02:34:19;20.40;74.10
74153;DHT22;62505;46.070;14.492;2022-12-18T02:36:48;20.40;73.90
74153;DHT22;62505;46.070;14.492;2022-12-18T02:39:16;20.40;73.90
74153;DHT22;62505;46.070;14.492;2022-12-18T02:41:46;20.40;74.10
74153;DHT22;62505;46.070;14.492;2022-12-18T02:44:14;20.40;74.00
74153;DHT22;62505;46.070;14.492;2022-12-18T02:46:43;20.40;74.00
74153;DHT22;62505;46.070;14.492;2022-12-18T02:49:19;20.40;74.10
74153;DHT22;62505;46.070;14.492;2022-12-18T02:51:52;20.40;74.00
74153;DHT22;62505;46.070;14.492;2022-12-18T02:54:27;20.30;73.90
74153;DHT22;62505;46.070;14.492;2022-12-18T02:57:04;20.30;74.00
74153;DHT22;62505;46.070;14.492;2022-12-18T02:59:38;20.30;73.90
74153;DHT22;62505;46.070;14.492;2022-12-18T03:02:17;20.40;74.00
74153;DHT22;62505;46.070;14.492;2022-12-18T03:04:49;20.40;74.00
74153;DHT22;62505;46.070;14.492;2022-12-18T03:07:21;20.40;74.00
74153;DHT22;62505;46.070;14.492;2022-12-18T03:09:52;20.40;74.00
74153;DHT22;62505;46.070;14.492;2022-12-18T03:12:24;20.40;74.00
74153;DHT22;62505;46.070;14.492;2022-12-18T03:14:57;20.30;73.90
74153;DHT22;62505;46.070;14.492;2022-12-18T03:17:28;20.30;73.90
74153;DHT22;62505;46.070;14.492;2022-12-18T03:20:00;20.40;74.00
74153;DHT22;62505;46.070;14.492;2022-12-18T03:22:30;20.40;74.60
74153;DHT22;62505;46.070;14.492;2022-12-18T03:25:02;20.30;73.80
74153;DHT22;62505;46.070;14.492;2022-12-18T03:27:33;20.40;73.90
74153;DHT22;62505;46.070;14.492;2022-12-18T03:30:03;20.30;73.90
74153;DHT22;62505;46.070;14.492;2022-12-18T03:32:38;20.30;73.90
74153;DHT22;62505;46.070;14.492;2022-12-18T03:35:07;20.30;73.90
74153;DHT22;62505;46.070;14.492;2022-12-18T03:37:34;20.30;73.70
74153;DHT22;62505;46.070;14.492;2022-12-18T03:40:02;20.30;73.90
74153;DHT22;62505;46.070;14.492;2022-12-18T03:42:32;20.30;73.80
74153;DHT22;62505;46.070;14.492;2022-12-18T03:45:07;20.30;73.80
74153;DHT22;62505;46.070;14.492;2022-12-18T03:47:38;20.30;73.70
74153;DHT22;62505;46.070;14.492;2022-12-18T03:50:10;20.30;73.80
74153;DHT22;62505;46.070;14.492;2022-12-18T03:52:44;20.30;73.70
74153;DHT22;62505;46.070;14.492;2022-12-18T03:55:13;20.30;73.70
74153;DHT22;62505;46.070;14.492;2022-12-18T03:57:42;20.30;74.60
74153;DHT22;62505;46.070;14.492;2022-12-18T04:00:12;20.40;73.90
74153;DHT22;62505;46.070;14.492;2022-12-18T04:02:43;20.30;73.80
74153;DHT22;62505;46.070;14.492;2022-12-18T04:05:12;20.30;73.80
74153;DHT22;62505;46.070;14.492;2022-12-18T04:07:40;20.30;73.60
74153;DHT22;62505;46.070;14.492;2022-12-18T04:10:09;20.30;73.70
74153;DHT22;62505;46.070;14.492;2022-12-18T04:12:37;20.30;73.70
74153;DHT22;62505;46.070;14.492;2022-12-18T04:15:06;20.30;73.70
74153;DHT22;62505;46.070;14.492;2022-12-18T04:17:34;20.30;73.70
74153;DHT22;62505;46.070;14.492;2022-12-18T04:20:01;20.30;73.80
74153;DHT22;62505;46.070;14.492;2022-12-18T04:22:28;20.30;73.70
74153;DHT22;62505;46.070;14.492;2022-12-18T04:24:55;20.30;73.70
74153;DHT22;62505;46.070;14.492;2022-12-18T04:27:21;20.30;73.80
74153;DHT22;62505;46.070;14.492;2022-12-18T04:29:48;20.30;73.60
74153;DHT22;62505;46.070;14.492;2022-12-18T04:32:16;20.30;73.70
74153;DHT22;62505;46.070;14.492;2022-12-18T04:34:43;20.30;73.70
74153;DHT22;62505;46.070;14.492;2022-12-18T04:37:10;20.30;73.70
74153;DHT22;62505;46.070;14.492;2022-12-18T04:39:37;20.30;73.60
74153;DHT22;62505;46.070;14.492;2022-12-18T04:42:04;20.30;73.70
74153;DHT22;62505;46.070;14.492;2022-12-18T04:44:31;20.30;73.70
74153;DHT22;62505;46.070;14.492;2022-12-18T04:46:58;20.30;73.70
74153;DHT22;62505;46.070;14.492;2022-12-18T04:49:26;20.30;73.70
74153;DHT22;62505;46.070;14.492;2022-12-18T04:51:53;20.30;73.50
74153;DHT22;62505;46.070;14.492;2022-12-18T04:54:20;20.30;73.60
74153;DHT22;62505;46.070;14.492;2022-12-18T04:56:47;20.30;73.60
74153;DHT22;62505;46.070;14.492;2022-12-18T04:59:14;20.30;73.50
74153;DHT22;62505;46.070;14.492;2022-12-18T05:01:41;20.30;73.60
74153;DHT22;62505;46.070;14.492;2022-12-18T05:04:07;20.30;73.60
74153;DHT22;62505;46.070;14.492;2022-12-18T05:06:36;20.30;73.60
74153;DHT22;62505;46.070;14.492;2022-12-18T05:09:03;20.30;73.70
74153;DHT22;62505;46.070;14.492;2022-12-18T05:11:30;20.30;73.60
74153;DHT22;62505;46.070;14.492;2022-12-18T05:13:57;20.30;73.60
74153;DHT22;62505;46.070;14.492;2022-12-18T05:16:23;20.30;73.50
74153;DHT22;62505;46.070;14.492;2022-12-18T05:18:50;20.30;73.60
74153;DHT22;62505;46.070;14.492;2022-12-18T05:21:17;20.30;73.60
74153;DHT22;62505;46.070;14.492;2022-12-18T05:23:45;20.30;73.60
74153;DHT22;62505;46.070;14.492;2022-12-18T05:26:15;20.30;73.50
74153;DHT22;62505;46.070;14.492;2022-12-18T05:28:43;20.30;73.60
74153;DHT22;62505;46.070;14.492;2022-12-18T05:31:10;20.30;74.20
74153;DHT22;62505;46.070;14.492;2022-12-18T05:33:37;20.30;73.60
74153;DHT22;62505;46.070;14.492;2022-12-18T05:36:06;20.30;73.50
74153;DHT22;62505;46.070;14.492;2022-12-18T05:38:35;20.30;73.60
74153;DHT22;62505;46.070;14.492;2022-12-18T05:41:04;20.30;73.60
74153;DHT22;62505;46.070;14.492;2022-12-18T05:43:33;20.30;73.50
74153;DHT22;62505;46.070;14.492;2022-12-18T05:46:03;20.30;73.60
74153;DHT22;62505;46.070;14.492;2022-12-18T05:48:30;20.30;73.60
74153;DHT22;62505;46.070;14.492;2022-12-18T05:51:04;20.30;73.50
74153;DHT22;62505;46.070;14.492;2022-12-18T05:53:31;20.30;73.60
74153;DHT22;62505;46.070;14.492;2022-12-18T05:56:00;20.30;73.50
74153;DHT22;62505;46.070;14.492;2022-12-18T05:58:29;20.30;73.50
74153;DHT22;62505;46.070;14.492;2022-12-18T06:00:56;20.30;73.40
74153;DHT22;62505;46.070;14.492;2022-12-18T06:03:23;20.30;73.40
74153;DHT22;62505;46.070;14.492;2022-12-18T06:05:50;20.30;73.40
74153;DHT22;62505;46.070;14.492;2022-12-18T06:08:17;20.30;73.50
74153;DHT22;62505;46.070;14.492;2022-12-18T06:10:50;20.30;73.50
74153;DHT22;62505;46.070;14.492;2022-12-18T06:13:18;20.30;73.50
74153;DHT22;62505;46.070;14.492;2022-12-18T06:15:47;20.30;73.50
74153;DHT22;62505;46.070;14.492;2022-12-18T06:18:14;20.30;73.50
74153;DHT22;62505;46.070;14.492;2022-12-18T06:20:41;20.30;73.50
74153;DHT22;62505;46.070;14.492;2022-12-18T06:23:08;20.30;73.50
74153;DHT22;62505;46.070;14.492;2022-12-18T06:25:37;20.30;73.50
74153;DHT22;62505;46.070;14.492;2022-12-18T06:28:04;20.30;73.50
74153;DHT22;62505;46.070;14.492;2022-12-18T06:30:32;20.30;73.40
74153;DHT22;62505;46.070;14.492;2022-12-18T06:33:00;20.20;73.30
74153;DHT22;62505;46.070;14.492;2022-12-18T06:35:27;20.30;73.30
74153;DHT22;62505;46.070;14.492;2022-12-18T06:37:54;20.30;73.40
74153;DHT22;62505;46.070;14.492;2022-12-18T06:40:20;20.30;73.40
74153;DHT22;62505;46.070;14.492;2022-12-18T06:42:47;20.30;73.50
74153;DHT22;62505;46.070;14.492;2022-12-18T06:45:14;20.30;73.30
74153;DHT22;62505;46.070;14.492;2022-12-18T06:47:41;20.20;73.20
74153;DHT22;62505;46.070;14.492;2022-12-18T06:50:10;20.30;73.30
74153;DHT22;62505;46.070;14.492;2022-12-18T06:52:37;20.30;73.40
74153;DHT22;62505;46.070;14.492;2022-12-18T06:55:05;20.30;73.20
74153;DHT22;62505;46.070;14.492;2022-12-18T06:57:32;20.20;73.20
74153;DHT22;62505;46.070;14.492;2022-12-18T06:59:59;20.20;73.20
74153;DHT22;62505;46.070;14.492;2022-12-18T07:02:26;20.20;73.90
74153;DHT22;62505;46.070;14.492;2022-12-18T07:04:53;20.20;73.10
74153;DHT22;62505;46.070;14.492;2022-12-18T07:07:21;20.30;73.20
74153;DHT22;62505;46.070;14.492;2022-12-18T07:09:49;20.30;72.90
74153;DHT22;62505;46.070;14.492;2022-12-18T07:12:17;20.30;72.80
74153;DHT22;62505;46.070;14.492;2022-12-18T07:14:43;20.30;72.90
74153;DHT22;62505;46.070;14.492;2022-12-18T07:17:10;20.20;72.80
74153;DHT22;62505;46.070;14.492;2022-12-18T07:19:37;20.30;72.90
74153;DHT22;62505;46.070;14.492;2022-12-18T07:22:04;20.30;73.00
74153;DHT22;62505;46.070;14.492;2022-12-18T07:24:33;20.20;72.90
74153;DHT22;62505;46.070;14.492;2022-12-18T07:27:00;20.20;72.90
74153;DHT22;62505;46.070;14.492;2022-12-18T07:29:27;20.30;72.90
74153;DHT22;62505;46.070;14.492;2022-12-18T07:31:54;20.20;72.90
74153;DHT22;62505;46.070;14.492;2022-12-18T07:34:21;20.20;72.80
74153;DHT22;62505;46.070;14.492;2022-12-18T07:36:48;20.20;72.90
74153;DHT22;62505;46.070;14.492;2022-12-18T07:39:15;20.30;72.80
74153;DHT22;62505;46.070;14.492;2022-12-18T07:41:43;20.20;72.80
74153;DHT22;62505;46.070;14.492;2022-12-18T07:44:30;20.20;72.80
74153;DHT22;62505;46.070;14.492;2022-12-18T07:46:57;20.20;72.80
74153;DHT22;62505;46.070;14.492;2022-12-18T07:49:24;20.20;72.60
74153;DHT22;62505;46.070;14.492;2022-12-18T07:51:51;20.20;72.60
74153;DHT22;62505;46.070;14.492;2022-12-18T07:54:17;20.20;72.60
74153;DHT22;62505;46.070;14.492;2022-12-18T07:56:46;20.20;72.50
74153;DHT22;62505;46.070;14.492;2022-12-18T07:59:13;20.20;72.60
74153;DHT22;62505;46.070;14.492;2022-12-18T08:01:39;20.20;72.50
74153;DHT22;62505;46.070;14.492;2022-12-18T08:04:06;20.20;72.40
74153;DHT22;62505;46.070;14.492;2022-12-18T08:06:33;20.20;72.50
74153;DHT22;62505;46.070;14.492;2022-12-18T08:09:00;20.20;72.50
74153;DHT22;62505;46.070;14.492;2022-12-18T08:11:27;20.20;72.50
74153;DHT22;62505;46.070;14.492;2022-12-18T08:13:57;20.20;72.30
74153;DHT22;62505;46.070;14.492;2022-12-18T08:16:24;20.20;72.40
74153;DHT22;62505;46.070;14.492;2022-12-18T08:18:52;20.20;72.40
74153;DHT22;62505;46.070;14.492;2022-12-18T08:21:20;20.20;72.40
74153;DHT22;62505;46.070;14.492;2022-12-18T08:23:48;20.20;72.30
74153;DHT22;62505;46.070;14.492;2022-12-18T08:26:15;20.30;69.10
74153;DHT22;62505;46.070;14.492;2022-12-18T08:28:42;20.20;65.70
74153;DHT22;62505;46.070;14.492;2022-12-18T08:31:11;20.30;65.00
74153;DHT22;62505;46.070;14.492;2022-12-18T08:33:39;20.40;64.60
74153;DHT22;62505;46.070;14.492;2022-12-18T08:36:07;20.50;64.40
74153;DHT22;62505;46.070;14.492;2022-12-18T08:38:35;20.50;64.30
74153;DHT22;62505;46.070;14.492;2022-12-18T08:41:03;20.40;64.80
74153;DHT22;62505;46.070;14.492;2022-12-18T08:43:30;20.50;65.60
74153;DHT22;62505;46.070;14.492;2022-12-18T08:46:16;20.50;67.10
74153;DHT22;62505;46.070;14.492;2022-12-18T08:48:43;20.50;67.20
74153;DHT22;62505;46.070;14.492;2022-12-18T08:51:10;20.50;67.30
74153;DHT22;62505;46.070;14.492;2022-12-18T08:53:37;20.40;67.80
74153;DHT22;62505;46.070;14.492;2022-12-18T08:56:05;20.40;67.90
74153;DHT22;62505;46.070;14.492;2022-12-18T08:58:32;20.40;67.80
74153;DHT22;62505;46.070;14.492;2022-12-18T09:01:00;20.50;67.70
74153;DHT22;62505;46.070;14.492;2022-12-18T09:03:28;20.50;67.60
74153;DHT22;62505;46.070;14.492;2022-12-18T09:05:56;20.50;67.60
74153;DHT22;62505;46.070;14.492;2022-12-18T09:08:23;20.50;67.60
74153;DHT22;62505;46.070;14.492;2022-12-18T09:10:50;20.50;67.60
74153;DHT22;62505;46.070;14.492;2022-12-18T09:13:17;20.50;67.40
74153;DHT22;62505;46.070;14.492;2022-12-18T09:15:46;20.50;67.80
74153;DHT22;62505;46.070;14.492;2022-12-18T09:18:18;20.50;68.50
74153;DHT22;62505;46.070;14.492;2022-12-18T09:20:50;20.50;68.50
74153;DHT22;62505;46.070;14.492;2022-12-18T09:23:18;20.40;68.60
74153;DHT22;62505;46.070;14.492;2022-12-18T09:25:45;20.40;68.90
74153;DHT22;62505;46.070;14.492;2022-12-18T09:28:16;20.40;68.90
74153;DHT22;62505;46.070;14.492;2022-12-18T09:30:44;20.40;69.00
74153;DHT22;62505;46.070;14.492;2022-12-18T09:33:12;20.40;69.20
74153;DHT22;62505;46.070;14.492;2022-12-18T09:35:40;20.30;69.20
74153;DHT22;62505;46.070;14.492;2022-12-18T09:38:11;20.30;69.30
74153;DHT22;62505;46.070;14.492;2022-12-18T09:40:42;20.30;69.30
74153;DHT22;62505;46.070;14.492;2022-12-18T09:43:14;20.30;69.30
74153;DHT22;62505;46.070;14.492;2022-12-18T09:45:45;20.30;69.30
74153;DHT22;62505;46.070;14.492;2022-12-18T09:48:18;20.30;69.40
74153;DHT22;62505;46.070;14.492;2022-12-18T09:50:46;20.30;69.50
74153;DHT22;62505;46.070;14.492;2022-12-18T09:53:18;20.30;69.50
74153;DHT22;62505;46.070;14.492;2022-12-18T09:55:51;20.30;69.60
74153;DHT22;62505;46.070;14.492;2022-12-18T09:58:25;20.30;69.60
74153;DHT22;62505;46.070;14.492;2022-12-18T10:00:53;20.20;69.60
74153;DHT22;62505;46.070;14.492;2022-12-18T10:03:21;20.30;69.60
74153;DHT22;62505;46.070;14.492;2022-12-18T10:05:55;20.30;69.70
74153;DHT22;62505;46.070;14.492;2022-12-18T10:08:33;20.30;69.70
74153;DHT22;62505;46.070;14.492;2022-12-18T10:11:22;20.20;69.70
74153;DHT22;62505;46.070;14.492;2022-12-18T10:13:57;20.30;69.70
74153;DHT22;62505;46.070;14.492;2022-12-18T10:16:32;20.20;69.60
74153;DHT22;62505;46.070;14.492;2022-12-18T10:19:18;20.20;69.70
74153;DHT22;62505;46.070;14.492;2022-12-18T10:21:54;20.30;69.70
74153;DHT22;62505;46.070;14.492;2022-12-18T10:24:32;20.20;69.70
74153;DHT22;62505;46.070;14.492;2022-12-18T10:27:12;20.20;69.70
74153;DHT22;62505;46.070;14.492;2022-12-18T10:29:39;20.20;69.70
74153;DHT22;62505;46.070;14.492;2022-12-18T10:32:07;20.30;69.70
74153;DHT22;62505;46.070;14.492;2022-12-18T10:34:35;20.20;69.60
74153;DHT22;62505;46.070;14.492;2022-12-18T10:37:06;20.20;69.70
74153;DHT22;62505;46.070;14.492;2022-12-18T10:39:40;20.20;69.50
74153;DHT22;62505;46.070;14.492;2022-12-18T10:42:11;20.30;69.60
74153;DHT22;62505;46.070;14.492;2022-12-18T10:44:41;20.20;69.70
74153;DHT22;62505;46.070;14.492;2022-12-18T10:47:12;20.20;69.80
74153;DHT22;62505;46.070;14.492;2022-12-18T10:49:47;20.20;69.90
74153;DHT22;62505;46.070;14.492;2022-12-18T10:52:17;20.20;70.00
74153;DHT22;62505;46.070;14.492;2022-12-18T10:54:50;20.30;70.10
74153;DHT22;62505;46.070;14.492;2022-12-18T10:57:30;20.30;70.90
74153;DHT22;62505;46.070;14.492;2022-12-18T10:59:59;20.20;70.10
74153;DHT22;62505;46.070;14.492;2022-12-18T11:02:34;20.20;70.10
74153;DHT22;62505;46.070;14.492;2022-12-18T11:05:01;20.20;70.90
74153;DHT22;62505;46.070;14.492;2022-12-18T11:07:48;20.30;70.30
74153;DHT22;62505;46.070;14.492;2022-12-18T11:10:18;20.20;70.20
74153;DHT22;62505;46.070;14.492;2022-12-18T11:12:45;20.30;70.40
74153;DHT22;62505;46.070;14.492;2022-12-18T11:15:15;20.20;70.20
74153;DHT22;62505;46.070;14.492;2022-12-18T11:17:43;20.20;70.30
74153;DHT22;62505;46.070;14.492;2022-12-18T11:20:30;20.20;70.30
74153;DHT22;62505;46.070;14.492;2022-12-18T11:22:59;20.20;70.30
74153;DHT22;62505;46.070;14.492;2022-12-18T11:25:31;20.20;70.30
74153;DHT22;62505;46.070;14.492;2022-12-18T11:28:00;20.20;70.30
74153;DHT22;62505;46.070;14.492;2022-12-18T11:30:30;20.20;70.30
74153;DHT22;62505;46.070;14.492;2022-12-18T11:33:01;20.20;70.20
74153;DHT22;62505;46.070;14.492;2022-12-18T11:35:39;20.20;70.20
74153;DHT22;62505;46.070;14.492;2022-12-18T11:38:21;20.20;70.30
74153;DHT22;62505;46.070;14.492;2022-12-18T11:40:55;20.20;70.40
74153;DHT22;62505;46.070;14.492;2022-12-18T11:43:27;20.20;70.30
74153;DHT22;62505;46.070;14.492;2022-12-18T11:45:59;20.20;70.30
74153;DHT22;62505;46.070;14.492;2022-12-18T11:48:29;20.20;70.40
74153;DHT22;62505;46.070;14.492;2022-12-18T11:50:58;20.20;70.30
74153;DHT22;62505;46.070;14.492;2022-12-18T11:53:26;20.20;70.30
74153;DHT22;62505;46.070;14.492;2022-12-18T11:56:17;20.20;70.30
74153;DHT22;62505;46.070;14.492;2022-12-18T11:58:48;20.20;70.40
74153;DHT22;62505;46.070;14.492;2022-12-18T12:01:27;20.20;70.40
74153;DHT22;62505;46.070;14.492;2022-12-18T12:04:09;20.20;70.40
74153;DHT22;62505;46.070;14.492;2022-12-18T12:06:45;20.20;70.30
74153;DHT22;62505;46.070;14.492;2022-12-18T12:09:20;20.20;70.40
74153;DHT22;62505;46.070;14.492;2022-12-18T12:12:10;20.20;70.10
74153;DHT22;62505;46.070;14.492;2022-12-18T12:14:48;20.20;70.30
74153;DHT22;62505;46.070;14.492;2022-12-18T12:17:28;20.20;70.30
74153;DHT22;62505;46.070;14.492;2022-12-18T12:20:07;20.20;70.20
74153;DHT22;62505;46.070;14.492;2022-12-18T12:22:42;20.20;70.90
74153;DHT22;62505;46.070;14.492;2022-12-18T12:25:33;20.30;70.10
74153;DHT22;62505;46.070;14.492;2022-12-18T12:28:19;20.30;70.10
74153;DHT22;62505;46.070;14.492;2022-12-18T12:30:57;20.30;70.10
74153;DHT22;62505;46.070;14.492;2022-12-18T12:33:36;20.30;70.10
74153;DHT22;62505;46.070;14.492;2022-12-18T12:36:13;20.30;70.10
74153;DHT22;62505;46.070;14.492;2022-12-18T12:38:47;20.30;70.10
74153;DHT22;62505;46.070;14.492;2022-12-18T12:41:20;20.30;70.10
74153;DHT22;62505;46.070;14.492;2022-12-18T12:44:12;20.30;70.00
74153;DHT22;62505;46.070;14.492;2022-12-18T12:46:42;20.30;69.90
74153;DHT22;62505;46.070;14.492;2022-12-18T12:49:12;20.30;70.80
74153;DHT22;62505;46.070;14.492;2022-12-18T12:51:43;20.30;70.00
74153;DHT22;62505;46.070;14.492;2022-12-18T12:54:15;20.30;70.10
74153;DHT22;62505;46.070;14.492;2022-12-18T12:56:48;20.30;70.00
74153;DHT22;62505;46.070;14.492;2022-12-18T12:59:24;20.30;70.00
74153;DHT22;62505;46.070;14.492;2022-12-18T13:02:00;20.30;70.00
74153;DHT22;62505;46.070;14.492;2022-12-18T13:04:35;20.30;70.80
74153;DHT22;62505;46.070;14.492;2022-12-18T13:07:15;20.30;70.00
74153;DHT22;62505;46.070;14.492;2022-12-18T13:10:11;20.30;70.00
74153;DHT22;62505;46.070;14.492;2022-12-18T13:12:51;20.30;70.00
74153;DHT22;62505;46.070;14.492;2022-12-18T13:15:31;20.30;70.10
74153;DHT22;62505;46.070;14.492;2022-12-18T13:18:20;20.30;70.00
74153;DHT22;62505;46.070;14.492;2022-12-18T13:20:50;20.30;70.10
74153;DHT22;62505;46.070;14.492;2022-12-18T13:23:33;20.30;70.20
74153;DHT22;62505;46.070;14.492;2022-12-18T13:29:02;20.30;70.20
74153;DHT22;62505;46.070;14.492;2022-12-18T13:32:00;20.30;70.20
74153;DHT22;62505;46.070;14.492;2022-12-18T13:34:29;20.30;70.00
74153;DHT22;62505;46.070;14.492;2022-12-18T13:37:34;20.40;70.20
74153;DHT22;62505;46.070;14.492;2022-12-18T13:39:44;20.30;70.10
74153;DHT22;62505;46.070;14.492;2022-12-18T13:42:38;20.30;70.20
74153;DHT22;62505;46.070;14.492;2022-12-18T13:45:42;20.30;69.80
74153;DHT22;62505;46.070;14.492;2022-12-18T13:48:23;20.30;70.10
74153;DHT22;62505;46.070;14.492;2022-12-18T13:50:57;20.30;70.10
74153;DHT22;62505;46.070;14.492;2022-12-18T13:53:28;20.30;70.20
74153;DHT22;62505;46.070;14.492;2022-12-18T13:55:57;20.30;70.10
74153;DHT22;62505;46.070;14.492;2022-12-18T13:58:24;20.30;70.20
74153;DHT22;62505;46.070;14.492;2022-12-18T14:00:50;20.30;70.20
74153;DHT22;62505;46.070;14.492;2022-12-18T14:03:21;20.30;70.00
74153;DHT22;62505;46.070;14.492;2022-12-18T14:05:58;20.30;70.20
74153;DHT22;62505;46.070;14.492;2022-12-18T14:08:29;20.30;70.20
74153;DHT22;62505;46.070;14.492;2022-12-18T14:10:58;20.30;70.00
74153;DHT22;62505;46.070;14.492;2022-12-18T14:13:28;20.30;70.20
74153;DHT22;62505;46.070;14.492;2022-12-18T14:15:56;20.30;70.90
74153;DHT22;62505;46.070;14.492;2022-12-18T14:18:31;20.30;70.10
74153;DHT22;62505;46.070;14.492;2022-12-18T14:21:02;20.30;70.10
74153;DHT22;62505;46.070;14.492;2022-12-18T14:23:31;20.30;70.10
74153;DHT22;62505;46.070;14.492;2022-12-18T14:25:59;20.30;70.10
74153;DHT22;62505;46.070;14.492;2022-12-18T14:28:26;20.30;70.20
74153;DHT22;62505;46.070;14.492;2022-12-18T14:30:54;20.30;70.10
74153;DHT22;62505;46.070;14.492;2022-12-18T14:33:23;20.30;70.20
74153;DHT22;62505;46.070;14.492;2022-12-18T14:35:56;20.30;70.00
74153;DHT22;62505;46.070;14.492;2022-12-18T14:38:29;20.30;70.10
74153;DHT22;62505;46.070;14.492;2022-12-18T14:41:01;20.30;70.20
74153;DHT22;62505;46.070;14.492;2022-12-18T14:43:29;20.30;70.10
74153;DHT22;62505;46.070;14.492;2022-12-18T14:45:58;20.40;70.20
74153;DHT22;62505;46.070;14.492;2022-12-18T14:48:35;20.30;70.10
74153;DHT22;62505;46.070;14.492;2022-12-18T14:51:05;20.30;70.20
74153;DHT22;62505;46.070;14.492;2022-12-18T14:53:35;20.40;70.20
74153;DHT22;62505;46.070;14.492;2022-12-18T14:56:10;20.40;70.20
74153;DHT22;62505;46.070;14.492;2022-12-18T14:58:45;20.30;70.20
74153;DHT22;62505;46.070;14.492;2022-12-18T15:01:19;20.40;70.40
74153;DHT22;62505;46.070;14.492;2022-12-18T15:03:46;20.40;70.10
74153;DHT22;62505;46.070;14.492;2022-12-18T15:06:23;20.40;70.10
74153;DHT22;62505;46.070;14.492;2022-12-18T15:08:51;20.40;70.80
74153;DHT22;62505;46.070;14.492;2022-12-18T15:11:32;20.40;70.00
74153;DHT22;62505;46.070;14.492;2022-12-18T15:14:03;20.40;70.20
74153;DHT22;62505;46.070;14.492;2022-12-18T15:16:50;20.40;70.10
74153;DHT22;62505;46.070;14.492;2022-12-18T15:19:18;20.40;70.30
74153;DHT22;62505;46.070;14.492;2022-12-18T15:21:47;20.40;70.20
74153;DHT22;62505;46.070;14.492;2022-12-18T15:24:18;20.40;70.20
74153;DHT22;62505;46.070;14.492;2022-12-18T15:26:46;20.40;70.30
74153;DHT22;62505;46.070;14.492;2022-12-18T15:29:20;20.40;70.20
74153;DHT22;62505;46.070;14.492;2022-12-18T15:32:02;20.40;70.20
74153;DHT22;62505;46.070;14.492;2022-12-18T15:34:30;20.40;70.30
74153;DHT22;62505;46.070;14.492;2022-12-18T15:36:59;20.40;70.40
74153;DHT22;62505;46.070;14.492;2022-12-18T15:39:26;20.40;70.30
74153;DHT22;62505;46.070;14.492;2022-12-18T15:41:53;20.40;70.40